createdAt,value
2019-01-22T00:00:42.146Z,71.37
2019-01-22T00:03:11.225Z,70.03
2019-01-22T00:05:40.355Z,76.00
2019-01-22T00:08:09.477Z,75.90
2019-01-22T00:10:38.539Z,72.95
2019-01-22T00:13:07.855Z,68.70
2019-01-22T00:15:36.883Z,75.92
2019-01-22T00:18:05.973Z,76.00
2019-01-22T00:20:34.959Z,79.20
2019-01-22T00:23:04.020Z,88.07
2019-01-22T00:25:33.113Z,69.62
2019-01-22T00:28:01.964Z,80.10
2019-01-22T00:30:30.999Z,64.82
2019-01-22T00:32:59.993Z,71.42
2019-01-22T00:35:28.895Z,74.58
2019-01-22T00:37:57.912Z,63.42
2019-01-22T00:40:27.153Z,71.20
2019-01-22T00:42:56.169Z,62.65
2019-01-22T00:45:25.250Z,73.33
2019-01-22T00:47:54.182Z,62.38
2019-01-22T00:50:23.199Z,65.17
2019-01-22T00:52:52.032Z,59.27
2019-01-22T00:55:21.020Z,58.68
2019-01-22T00:57:50.063Z,66.00
2019-01-22T01:00:25.213Z,58.73
2019-01-22T01:02:54.219Z,55.98
2019-01-22T01:05:23.255Z,60.23
2019-01-22T01:07:52.321Z,54.73
2019-01-22T01:10:21.483Z,73.22
2019-01-22T01:12:50.655Z,72.78
2019-01-22T01:15:19.949Z,58.20
2019-01-22T01:17:48.880Z,58.40
2019-01-22T01:20:19.074Z,59.33
2019-01-22T01:22:48.089Z,55.80
2019-01-22T01:25:18.706Z,64.55
2019-01-22T01:27:47.709Z,74.80
2019-01-22T01:30:18.939Z,72.27
2019-01-22T01:32:47.950Z,68.62
2019-01-22T01:35:16.955Z,61.33
2019-01-22T01:37:45.887Z,77.72
2019-01-22T01:40:16.523Z,72.35
2019-01-22T01:42:45.562Z,81.32
2019-01-22T01:45:14.924Z,92.30
2019-01-22T01:47:44.344Z,83.33
2019-01-22T01:50:15.135Z,81.60
2019-01-22T01:52:44.082Z,81.17
2019-01-22T01:55:14.571Z,94.42
2019-01-22T01:57:43.578Z,86.53
2019-01-22T02:00:20.644Z,93.42
2019-01-22T02:02:49.743Z,100.92
2019-01-22T02:05:18.855Z,111.37
2019-01-22T02:07:47.768Z,97.88
2019-01-22T02:10:21.998Z,93.15
2019-01-22T02:13:03.887Z,84.07
2019-01-22T02:15:39.781Z,89.42
2019-01-22T02:18:41.966Z,88.00
2019-01-22T02:21:27.769Z,97.05
2019-01-22T02:24:18.896Z,76.07
2019-01-22T02:27:04.551Z,96.63
2019-01-22T02:29:57.559Z,85.75
2019-01-22T02:32:53.686Z,92.27
2019-01-22T02:35:49.706Z,84.25
2019-01-22T02:38:48.872Z,82.82
2019-01-22T02:42:04.546Z,63.55
2019-01-22T02:45:16.368Z,72.50
2019-01-22T02:48:08.270Z,71.15
2019-01-22T02:51:19.944Z,73.07
2019-01-22T02:54:33.010Z,78.70
2019-01-22T02:57:26.301Z,77.90
2019-01-22T03:00:48.537Z,72.67
2019-01-22T03:03:37.457Z,84.72
2019-01-22T03:06:39.439Z,79.27
2019-01-22T03:09:48.374Z,86.28
2019-01-22T03:12:58.870Z,90.42
2019-01-22T03:15:58.553Z,86.60
2019-01-22T03:18:47.733Z,100.18
2019-01-22T03:21:35.752Z,81.42
2019-01-22T03:24:53.507Z,92.25
2019-01-22T03:27:48.705Z,96.28
2019-01-22T03:31:12.078Z,104.35
2019-01-22T03:34:22.748Z,97.72
2019-01-22T03:37:08.687Z,80.15
2019-01-22T03:39:42.957Z,75.52
2019-01-22T03:42:20.928Z,93.42
2019-01-22T03:45:40.306Z,84.30
2019-01-22T03:48:37.488Z,78.90
2019-01-22T03:51:27.483Z,81.85
2019-01-22T03:54:24.402Z,75.37
2019-01-22T03:57:30.346Z,79.32
2019-01-22T03:59:59.432Z,75.87
2019-01-22T04:02:31.860Z,77.05
2019-01-22T04:05:00.848Z,69.15
2019-01-22T04:07:30.263Z,82.78
2019-01-22T04:10:08.804Z,75.00
2019-01-22T04:12:37.903Z,65.08
2019-01-22T04:15:10.566Z,78.52
2019-01-22T04:17:40.049Z,61.53
2019-01-22T04:20:10.914Z,75.45
2019-01-22T04:22:49.949Z,62.83
2019-01-22T04:25:44.314Z,67.40
2019-01-22T04:28:36.176Z,69.87
2019-01-22T04:31:10.049Z,73.95
2019-01-22T04:34:09.722Z,70.35
2019-01-22T04:37:00.217Z,73.75
2019-01-22T04:39:43.224Z,69.55
2019-01-22T04:42:56.589Z,66.87
2019-01-22T04:46:14.280Z,65.12
2019-01-22T04:49:22.616Z,57.43
2019-01-22T04:52:31.633Z,61.85
2019-01-22T04:55:40.791Z,64.27
2019-01-22T04:59:00.015Z,61.45
2019-01-22T05:02:08.726Z,64.70
2019-01-22T05:04:49.719Z,59.10
2019-01-22T05:07:57.552Z,54.98
2019-01-22T05:11:15.543Z,55.08
2019-01-22T05:14:07.718Z,55.28
2019-01-22T05:17:20.291Z,61.18
2019-01-22T05:20:14.183Z,69.92
2019-01-22T05:23:15.322Z,64.12
2019-01-22T05:26:25.824Z,60.30
2019-01-22T05:29:05.495Z,58.10
2019-01-22T05:31:43.513Z,60.10
2019-01-22T05:34:32.247Z,62.62
2019-01-22T05:37:38.239Z,66.65
2019-01-22T05:40:38.708Z,63.25
2019-01-22T05:43:49.627Z,66.35
2019-01-22T05:47:09.051Z,70.20
2019-01-22T05:50:30.848Z,75.28
2019-01-22T05:53:33.981Z,62.58
2019-01-22T05:56:08.132Z,59.45
2019-01-22T05:59:25.229Z,63.95
2019-01-22T06:02:01.290Z,63.48
2019-01-22T06:05:09.147Z,63.02
2019-01-22T06:07:54.496Z,57.50
2019-01-22T06:11:11.995Z,54.85
2019-01-22T06:14:04.063Z,51.50
2019-01-22T06:17:06.945Z,52.08
2019-01-22T06:20:01.283Z,64.35
2019-01-22T06:22:53.324Z,51.92
2019-01-22T06:25:49.580Z,59.80
2019-01-22T06:28:58.657Z,61.77
2019-01-22T06:32:04.506Z,56.00
2019-01-22T06:34:58.630Z,60.55
2019-01-22T06:37:52.432Z,64.42
2019-01-22T06:40:39.584Z,67.17
2019-01-22T06:43:46.223Z,58.13
2019-01-22T06:46:33.315Z,70.05
2019-01-22T06:49:24.593Z,63.30
2019-01-22T06:52:08.718Z,64.90
2019-01-22T06:54:58.479Z,62.25
2019-01-22T06:58:03.422Z,73.92
2019-01-22T07:00:54.815Z,59.15
2019-01-22T07:03:58.199Z,61.13
2019-01-22T07:06:41.180Z,66.53
2019-01-22T07:09:22.399Z,67.67
2019-01-22T07:12:24.618Z,67.97
2019-01-22T07:15:18.648Z,61.28
2019-01-22T07:18:28.733Z,58.83
2019-01-22T07:21:28.759Z,61.50
2019-01-22T07:24:07.137Z,66.07
2019-01-22T07:27:16.093Z,64.20
2019-01-22T07:30:13.534Z,65.55
2019-01-22T07:33:34.137Z,67.78
2019-01-22T07:36:13.067Z,69.77
2019-01-22T07:39:07.967Z,61.42
2019-01-22T07:41:44.938Z,62.08
2019-01-22T07:45:04.163Z,67.62
2019-01-22T07:47:48.704Z,62.58
2019-01-22T07:50:27.112Z,61.45
2019-01-22T07:53:35.556Z,59.95
2019-01-22T07:56:42.383Z,55.12
2019-01-22T07:59:43.031Z,50.58
2019-01-22T08:03:04.652Z,67.55
2019-01-22T08:05:56.120Z,53.00
2019-01-22T08:08:46.723Z,53.10
2019-01-22T08:11:42.088Z,57.17
2019-01-22T08:14:55.230Z,61.98
2019-01-22T08:18:08.334Z,55.63
2019-01-22T08:21:20.296Z,53.85
2019-01-22T08:24:17.007Z,56.85
2019-01-22T08:27:00.806Z,57.85
2019-01-22T08:30:04.559Z,57.17
2019-01-22T08:33:23.529Z,62.30
2019-01-22T08:36:29.452Z,58.23
2019-01-22T08:39:23.998Z,68.37
2019-01-22T08:42:03.316Z,55.23
2019-01-22T08:45:15.058Z,63.10
2019-01-22T08:48:20.979Z,54.10
2019-01-22T08:51:40.148Z,57.90
2019-01-22T08:54:45.935Z,50.28
2019-01-22T08:57:44.215Z,56.18
2019-01-22T09:00:21.416Z,54.67
2019-01-22T09:03:19.569Z,50.48
2019-01-22T09:06:19.771Z,48.40
2019-01-22T09:09:17.431Z,52.95
2019-01-22T09:12:16.279Z,47.75
2019-01-22T09:15:00.230Z,47.48
2019-01-22T09:17:59.721Z,42.48
2019-01-22T09:20:52.518Z,42.65
2019-01-22T09:24:11.686Z,48.33
2019-01-22T09:27:21.072Z,42.23
2019-01-22T09:30:02.907Z,45.00
2019-01-22T09:32:52.441Z,45.90
2019-01-22T09:36:13.719Z,45.25
2019-01-22T09:38:42.781Z,46.00
2019-01-22T09:41:11.820Z,43.33
2019-01-22T09:43:40.861Z,47.05
2019-01-22T09:46:09.797Z,47.98
2019-01-22T09:48:38.764Z,46.65
2019-01-22T09:51:07.877Z,41.28
2019-01-22T09:53:36.902Z,44.93
2019-01-22T09:56:05.933Z,41.95
2019-01-22T09:58:35.026Z,43.85
2019-01-22T10:01:04.135Z,40.98
2019-01-22T10:03:33.411Z,44.05
2019-01-22T10:06:02.247Z,39.73
2019-01-22T10:08:31.171Z,42.23
2019-01-22T10:11:01.810Z,43.10
2019-01-22T10:13:31.010Z,34.48
2019-01-22T10:16:02.362Z,36.42
2019-01-22T10:18:31.373Z,42.48
2019-01-22T10:21:00.444Z,35.80
2019-01-22T10:23:29.635Z,35.60
2019-01-22T10:25:58.719Z,35.90
2019-01-22T10:28:27.559Z,35.83
2019-01-22T10:30:56.426Z,35.88
2019-01-22T10:33:25.596Z,42.55
2019-01-22T10:35:54.538Z,33.45
2019-01-22T10:38:23.489Z,37.78
2019-01-22T10:40:52.484Z,36.98
2019-01-22T10:43:21.433Z,34.80
2019-01-22T10:45:52.798Z,36.77
2019-01-22T10:48:22.014Z,33.15
2019-01-22T10:50:51.216Z,30.77
2019-01-22T10:53:20.464Z,32.75
2019-01-22T10:55:51.257Z,29.23
2019-01-22T10:58:20.392Z,32.70
2019-01-22T11:01:13.938Z,31.07
2019-01-22T11:03:45.880Z,31.35
2019-01-22T11:06:14.930Z,31.35
2019-01-22T11:08:44.138Z,33.10
2019-01-22T11:11:32.414Z,39.92
2019-01-22T11:14:09.958Z,32.73
2019-01-22T11:17:19.930Z,32.08
2019-01-22T11:20:32.002Z,34.33
2019-01-22T11:23:04.198Z,40.05
2019-01-22T11:25:35.131Z,35.05
2019-01-22T11:29:07.061Z,32.60
2019-01-22T11:31:45.414Z,34.35
2019-01-22T11:34:16.154Z,36.03
2019-01-22T11:36:45.306Z,33.80
2019-01-22T11:39:14.523Z,37.60
2019-01-22T11:41:47.909Z,41.50
2019-01-22T11:44:17.575Z,27.98
2019-01-22T11:46:47.594Z,30.27
2019-01-22T11:49:23.219Z,33.38
2019-01-22T11:51:47.975Z,34.90
2019-01-22T11:54:16.997Z,36.53
2019-01-22T11:59:38.205Z,36.10
2019-01-22T12:02:07.852Z,32.95
2019-01-22T12:04:37.040Z,34.18
2019-01-22T12:07:09.073Z,36.98
2019-01-22T12:09:37.968Z,34.18
2019-01-22T12:12:07.450Z,33.10
2019-01-22T12:14:36.530Z,35.13
2019-01-22T12:17:05.767Z,35.63
2019-01-22T12:19:34.743Z,35.58
2019-01-22T12:22:03.737Z,38.45
2019-01-22T12:24:32.773Z,34.25
2019-01-22T12:27:24.840Z,32.25
2019-01-22T12:29:53.864Z,34.78
2019-01-22T12:32:49.135Z,34.83
2019-01-22T12:35:40.702Z,32.28
2019-01-22T12:38:16.960Z,27.65
2019-01-22T12:40:53.184Z,31.73
2019-01-22T12:43:40.425Z,27.00
2019-01-22T12:46:56.668Z,25.95
2019-01-22T12:50:00.749Z,25.20
2019-01-22T12:59:32.365Z,27.25
2019-01-22T13:02:37.066Z,26.52
2019-01-22T13:05:51.808Z,26.25
2019-01-22T13:08:50.055Z,24.85
2019-01-22T13:11:33.979Z,22.87
2019-01-22T13:15:13.602Z,24.12
2019-01-22T13:17:50.672Z,25.80
2019-01-22T13:20:49.185Z,24.20
2019-01-22T13:23:21.137Z,24.45
2019-01-22T13:25:54.750Z,23.92
2019-01-22T13:28:54.131Z,26.37
2019-01-22T13:32:00.934Z,25.82
2019-01-22T13:35:30.961Z,23.40
2019-01-22T13:38:51.961Z,27.42
2019-01-22T13:41:50.787Z,25.17
2019-01-22T13:45:10.028Z,24.52
2019-01-22T13:47:51.453Z,25.77
2019-01-22T13:50:56.734Z,24.65
2019-01-22T13:53:27.913Z,25.65
2019-01-22T13:59:07.066Z,25.08
2019-01-22T14:02:08.079Z,24.00
2019-01-22T14:05:01.991Z,29.25
2019-01-22T14:07:30.694Z,29.48
2019-01-22T14:10:06.284Z,23.10
2019-01-22T14:12:39.024Z,22.62
2019-01-22T14:15:29.287Z,30.30
2019-01-22T14:17:55.890Z,20.77
2019-01-22T14:20:25.591Z,27.60
2019-01-22T14:22:55.329Z,24.15
2019-01-22T14:25:24.683Z,35.95
2019-01-22T14:27:54.023Z,28.87
2019-01-22T14:30:28.530Z,29.15
2019-01-22T14:33:06.965Z,26.62
2019-01-22T14:35:36.494Z,27.32
2019-01-22T14:38:06.306Z,25.55
2019-01-22T14:44:15.665Z,25.05
2019-01-22T14:47:06.912Z,29.02
2019-01-22T14:49:49.730Z,22.13
2019-01-22T14:52:14.425Z,28.27
2019-01-22T14:54:49.733Z,25.60
2019-01-22T14:58:08.181Z,31.05
2019-01-22T15:01:15.849Z,25.57
2019-01-22T15:03:51.928Z,29.27
2019-01-22T15:06:24.026Z,30.23
2019-01-22T15:08:54.833Z,31.73
2019-01-22T15:11:23.733Z,30.43
2019-01-22T15:13:54.521Z,26.25
2019-01-22T15:16:23.996Z,28.57
2019-01-22T15:18:53.393Z,27.40
2019-01-22T15:21:28.276Z,29.98
2019-01-22T15:24:13.485Z,29.37
2019-01-22T15:27:27.158Z,24.45
2019-01-22T15:29:56.662Z,28.47
2019-01-22T15:33:14.936Z,28.57
2019-01-22T15:35:43.214Z,29.00
2019-01-22T15:38:32.151Z,37.23
2019-01-22T15:41:22.530Z,32.90
2019-01-22T15:44:03.202Z,26.40
2019-01-22T15:46:32.897Z,32.78
2019-01-22T15:49:02.442Z,30.02
2019-01-22T15:51:33.463Z,29.98
2019-01-22T15:54:05.869Z,30.32
2019-01-22T15:56:35.128Z,29.55
2019-01-22T15:59:04.485Z,33.13
2019-01-22T16:02:01.224Z,33.05
2019-01-22T16:04:18.868Z,33.60
2019-01-22T16:10:30.843Z,29.27
2019-01-22T16:13:20.448Z,27.55
2019-01-22T16:15:47.737Z,31.57
2019-01-22T16:18:19.453Z,28.62
2019-01-22T16:20:53.538Z,31.30
2019-01-22T16:23:23.054Z,33.18
2019-01-22T16:26:30.033Z,35.33
2019-01-22T16:29:01.277Z,29.87
2019-01-22T16:31:30.462Z,32.35
2019-01-22T16:34:09.725Z,32.88
2019-01-22T16:36:39.192Z,34.33
2019-01-22T16:39:50.008Z,28.12
2019-01-22T16:42:23.391Z,23.12
2019-01-22T16:44:56.313Z,27.40
2019-01-22T16:47:34.099Z,25.88
2019-01-22T16:50:03.207Z,25.60
2019-01-22T16:52:54.543Z,25.90
2019-01-22T17:06:17.721Z,25.02
2019-01-22T17:10:06.675Z,20.90
2019-01-22T17:17:10.456Z,20.70
2019-01-22T17:31:20.437Z,21.00
2019-01-22T17:33:52.891Z,24.85
2019-01-22T17:36:41.479Z,23.45
2019-01-22T17:39:29.900Z,28.30
2019-01-22T17:41:59.740Z,24.55
2019-01-22T17:44:35.192Z,23.98
2019-01-22T17:47:29.572Z,23.52
2019-01-22T17:50:04.356Z,22.32
2019-01-22T17:52:43.485Z,22.48
2019-01-22T17:55:13.640Z,22.85
2019-01-22T17:57:43.253Z,21.75
2019-01-22T18:00:17.375Z,25.02
2019-01-22T18:02:46.726Z,23.95
2019-01-22T18:08:18.823Z,21.75
2019-01-22T18:10:47.928Z,23.90
2019-01-22T18:13:17.018Z,31.68
2019-01-22T18:15:46.068Z,28.12
2019-01-22T18:18:15.062Z,35.25
2019-01-22T18:20:44.886Z,25.37
2019-01-22T18:23:49.468Z,26.25
2019-01-22T18:27:00.945Z,28.32
2019-01-22T18:30:26.017Z,26.45
2019-01-22T18:33:13.251Z,23.83
2019-01-22T18:35:44.030Z,29.02
2019-01-22T18:38:14.864Z,29.63
2019-01-22T18:40:43.830Z,25.25
2019-01-22T18:43:12.740Z,25.72
2019-01-22T18:45:41.652Z,27.60
2019-01-22T18:48:10.747Z,27.00
2019-01-22T18:50:40.026Z,28.07
2019-01-22T18:53:09.024Z,25.62
2019-01-22T18:55:38.090Z,24.52
2019-01-22T18:58:07.179Z,31.97
2019-01-22T19:00:36.412Z,27.98
2019-01-22T19:03:05.874Z,28.42
2019-01-22T19:05:34.931Z,27.77
2019-01-22T19:08:03.904Z,29.20
2019-01-22T19:10:32.907Z,30.50
2019-01-22T19:13:02.034Z,31.82
2019-01-22T19:15:31.010Z,30.77
2019-01-22T19:17:59.888Z,25.20
2019-01-22T19:20:28.865Z,24.23
2019-01-22T19:22:58.166Z,29.15
2019-01-22T19:25:27.959Z,28.92
2019-01-22T19:27:57.008Z,29.15
2019-01-22T19:30:28.015Z,32.13
2019-01-22T19:32:57.037Z,29.67
2019-01-22T19:35:27.543Z,29.10
2019-01-22T19:37:56.626Z,29.90
2019-01-22T19:40:25.834Z,33.80
2019-01-22T19:42:54.814Z,37.98
2019-01-22T19:45:35.464Z,35.80
2019-01-22T19:48:04.826Z,36.23
2019-01-22T19:50:33.860Z,38.30
2019-01-22T19:53:02.935Z,34.50
2019-01-22T19:55:31.981Z,30.90
2019-01-22T19:58:01.027Z,39.00
2019-01-22T20:00:35.273Z,31.90
2019-01-22T20:03:05.708Z,37.30
2019-01-22T20:05:35.073Z,33.42
2019-01-22T20:08:04.446Z,35.95
2019-01-22T20:10:33.577Z,37.33
2019-01-22T20:13:02.700Z,33.30
2019-01-22T20:15:31.771Z,41.85
2019-01-22T20:18:00.862Z,35.13
2019-01-22T20:20:29.851Z,33.60
2019-01-22T20:22:58.895Z,36.45
2019-01-22T20:25:27.791Z,41.95
2019-01-22T20:27:56.718Z,46.73
2019-01-22T20:30:30.739Z,40.20
2019-01-22T20:32:59.693Z,37.88
2019-01-22T20:35:28.772Z,37.93
2019-01-22T20:37:58.048Z,38.00
2019-01-22T20:40:27.270Z,39.53
2019-01-22T20:42:56.452Z,37.73
2019-01-22T20:45:26.820Z,43.80
2019-01-22T20:47:56.122Z,39.50
2019-01-22T20:50:25.161Z,33.98
2019-01-22T20:52:54.281Z,42.23
2019-01-22T20:55:23.551Z,39.13
2019-01-22T20:57:54.984Z,44.35
2019-01-22T21:00:23.971Z,44.08
2019-01-22T21:02:53.240Z,36.03
2019-01-22T21:05:24.114Z,40.78
2019-01-22T21:07:53.131Z,46.18
2019-01-22T21:10:24.521Z,42.70
2019-01-22T21:12:53.555Z,48.92
2019-01-22T21:15:22.550Z,47.58
2019-01-22T21:17:51.794Z,47.10
2019-01-22T21:20:20.901Z,48.60
2019-01-22T21:22:49.951Z,49.10
2019-01-22T21:25:19.231Z,42.38
2019-01-22T21:27:48.233Z,41.50
2019-01-22T21:30:34.048Z,43.25
2019-01-22T21:33:03.638Z,48.17
2019-01-22T21:35:32.583Z,43.45
2019-01-22T21:38:01.606Z,42.43
2019-01-22T21:40:30.563Z,45.60
2019-01-22T21:42:59.752Z,51.20
2019-01-22T21:45:28.860Z,45.50
2019-01-22T21:47:57.876Z,45.92
2019-01-22T21:50:26.890Z,51.13
2019-01-22T21:52:55.860Z,50.20
2019-01-22T21:55:24.960Z,44.85
2019-01-22T21:57:54.061Z,52.20
2019-01-22T22:00:24.306Z,47.33
2019-01-22T22:02:53.567Z,48.65
2019-01-22T22:05:25.323Z,52.65
2019-01-22T22:07:54.736Z,50.05
2019-01-22T22:10:24.351Z,50.78
2019-01-22T22:12:53.400Z,48.02
2019-01-22T22:15:23.375Z,46.83
2019-01-22T22:17:52.381Z,47.70
2019-01-22T22:20:21.448Z,50.35
2019-01-22T22:22:50.459Z,50.08
2019-01-22T22:25:20.889Z,53.80
2019-01-22T22:27:49.811Z,49.15
2019-01-22T22:30:37.555Z,48.35
2019-01-22T22:33:06.685Z,45.45
2019-01-22T22:35:35.766Z,55.78
2019-01-22T22:38:05.096Z,45.63
2019-01-22T22:40:34.132Z,55.63
2019-01-22T22:43:03.066Z,48.83
2019-01-22T22:45:32.123Z,53.20
2019-01-22T22:48:01.167Z,53.23
2019-01-22T22:50:32.006Z,48.33
2019-01-22T22:53:00.993Z,47.60
2019-01-22T22:55:30.037Z,55.50
2019-01-22T22:57:59.008Z,46.13
2019-01-22T23:00:56.056Z,47.65
2019-01-22T23:03:25.052Z,52.98
2019-01-22T23:05:54.295Z,58.02
2019-01-22T23:08:23.145Z,54.75
2019-01-22T23:10:52.103Z,54.03
2019-01-22T23:13:21.100Z,56.75
2019-01-22T23:15:50.112Z,46.28
2019-01-22T23:18:19.108Z,54.00
2019-01-22T23:20:48.230Z,54.38
2019-01-22T23:23:17.107Z,53.52
2019-01-22T23:25:46.091Z,56.20
2019-01-22T23:28:15.207Z,56.68
2019-01-22T23:30:44.167Z,54.03
2019-01-22T23:33:13.130Z,63.10
2019-01-22T23:35:42.156Z,50.40
2019-01-22T23:38:11.208Z,49.18
2019-01-22T23:40:40.179Z,53.15
2019-01-22T23:43:09.258Z,49.75
2019-01-22T23:45:38.300Z,50.15
2019-01-22T23:48:07.369Z,47.48
2019-01-22T23:50:36.272Z,53.85
2019-01-22T23:53:07.830Z,52.75
2019-01-22T23:55:36.749Z,50.67
2019-01-22T23:58:05.891Z,55.52
